sensor_id;sensor_type;location;lat;lon;timestamp;P1;durP1;ratioP1;P2;durP2;ratioP2
39814;SDS011;25495;45.948;4.568;2022-12-17T00:01:15;15.25;;;6.85;;
39814;SDS011;25495;45.948;4.568;2022-12-17T00:04:00;17.65;;;7.03;;
39814;SDS011;25495;45.948;4.568;2022-12-17T00:06:44;16.05;;;6.70;;
39814;SDS011;25495;45.948;4.568;2022-12-17T00:09:28;14.38;;;6.22;;
39814;SDS011;25495;45.948;4.568;2022-12-17T00:12:12;15.88;;;6.60;;
39814;SDS011;25495;45.948;4.568;2022-12-17T00:14:56;18.60;;;6.70;;
39814;SDS011;25495;45.948;4.568;2022-12-17T00:17:41;16.67;;;6.45;;
39814;SDS011;25495;45.948;4.568;2022-12-17T00:20:25;14.95;;;7.03;;
39814;SDS011;25495;45.948;4.568;2022-12-17T00:23:09;15.23;;;7.07;;
39814;SDS011;25495;45.948;4.568;2022-12-17T00:25:53;18.33;;;7.30;;
39814;SDS011;25495;45.948;4.568;2022-12-17T00:28:39;13.73;;;6.38;;
39814;SDS011;25495;45.948;4.568;2022-12-17T00:31:26;15.68;;;7.20;;
39814;SDS011;25495;45.948;4.568;2022-12-17T00:34:12;20.48;;;8.07;;
39814;SDS011;25495;45.948;4.568;2022-12-17T00:36:57;15.50;;;6.45;;
39814;SDS011;25495;45.948;4.568;2022-12-17T00:39:41;15.60;;;7.75;;
39814;SDS011;25495;45.948;4.568;2022-12-17T00:42:25;16.80;;;6.78;;
39814;SDS011;25495;45.948;4.568;2022-12-17T00:45:10;16.30;;;7.00;;
39814;SDS011;25495;45.948;4.568;2022-12-17T00:47:54;20.70;;;9.50;;
39814;SDS011;25495;45.948;4.568;2022-12-17T00:50:38;17.88;;;7.32;;
39814;SDS011;25495;45.948;4.568;2022-12-17T00:53:22;19.83;;;9.35;;
39814;SDS011;25495;45.948;4.568;2022-12-17T00:56:07;25.42;;;9.52;;
39814;SDS011;25495;45.948;4.568;2022-12-17T00:59:05;18.50;;;7.78;;
39814;SDS011;25495;45.948;4.568;2022-12-17T01:01:49;19.60;;;8.25;;
39814;SDS011;25495;45.948;4.568;2022-12-17T01:04:33;18.27;;;8.60;;
39814;SDS011;25495;45.948;4.568;2022-12-17T01:07:17;14.00;;;7.18;;
39814;SDS011;25495;45.948;4.568;2022-12-17T01:10:01;19.42;;;8.18;;
39814;SDS011;25495;45.948;4.568;2022-12-17T01:12:46;17.92;;;7.97;;
39814;SDS011;25495;45.948;4.568;2022-12-17T01:15:33;14.60;;;7.60;;
39814;SDS011;25495;45.948;4.568;2022-12-17T01:18:17;19.35;;;7.15;;
39814;SDS011;25495;45.948;4.568;2022-12-17T01:21:02;16.85;;;7.72;;
39814;SDS011;25495;45.948;4.568;2022-12-17T01:23:46;18.27;;;7.93;;
39814;SDS011;25495;45.948;4.568;2022-12-17T01:26:30;20.00;;;8.32;;
39814;SDS011;25495;45.948;4.568;2022-12-17T01:29:14;17.75;;;9.23;;
39814;SDS011;25495;45.948;4.568;2022-12-17T01:31:59;21.52;;;8.95;;
39814;SDS011;25495;45.948;4.568;2022-12-17T01:34:43;19.20;;;8.38;;
39814;SDS011;25495;45.948;4.568;2022-12-17T01:37:27;13.88;;;6.70;;
39814;SDS011;25495;45.948;4.568;2022-12-17T01:40:11;19.77;;;9.00;;
39814;SDS011;25495;45.948;4.568;2022-12-17T01:42:55;18.92;;;8.35;;
39814;SDS011;25495;45.948;4.568;2022-12-17T01:45:42;21.30;;;8.73;;
39814;SDS011;25495;45.948;4.568;2022-12-17T01:48:34;23.10;;;11.05;;
39814;SDS011;25495;45.948;4.568;2022-12-17T01:51:22;21.38;;;10.15;;
39814;SDS011;25495;45.948;4.568;2022-12-17T01:54:07;20.27;;;9.15;;
39814;SDS011;25495;45.948;4.568;2022-12-17T01:56:53;16.58;;;7.85;;
39814;SDS011;25495;45.948;4.568;2022-12-17T01:59:41;20.85;;;8.75;;
39814;SDS011;25495;45.948;4.568;2022-12-17T02:02:43;19.02;;;9.05;;
39814;SDS011;25495;45.948;4.568;2022-12-17T02:05:31;18.10;;;8.30;;
39814;SDS011;25495;45.948;4.568;2022-12-17T02:08:24;18.15;;;8.48;;
39814;SDS011;25495;45.948;4.568;2022-12-17T02:11:36;19.95;;;8.20;;
39814;SDS011;25495;45.948;4.568;2022-12-17T02:14:30;19.45;;;9.00;;
39814;SDS011;25495;45.948;4.568;2022-12-17T02:17:24;22.17;;;9.20;;
39814;SDS011;25495;45.948;4.568;2022-12-17T02:26:17;16.83;;;7.93;;
39814;SDS011;25495;45.948;4.568;2022-12-17T02:29:16;19.92;;;8.20;;
39814;SDS011;25495;45.948;4.568;2022-12-17T02:32:01;19.33;;;7.95;;
39814;SDS011;25495;45.948;4.568;2022-12-17T02:34:48;21.63;;;8.07;;
39814;SDS011;25495;45.948;4.568;2022-12-17T02:37:33;19.02;;;8.27;;
39814;SDS011;25495;45.948;4.568;2022-12-17T02:40:17;20.52;;;8.43;;
39814;SDS011;25495;45.948;4.568;2022-12-17T02:43:04;19.38;;;9.02;;
39814;SDS011;25495;45.948;4.568;2022-12-17T02:45:51;20.90;;;9.07;;
39814;SDS011;25495;45.948;4.568;2022-12-17T02:48:35;18.63;;;7.88;;
39814;SDS011;25495;45.948;4.568;2022-12-17T02:51:20;21.75;;;8.65;;
39814;SDS011;25495;45.948;4.568;2022-12-17T02:54:05;16.20;;;8.07;;
39814;SDS011;25495;45.948;4.568;2022-12-17T02:56:50;21.38;;;8.63;;
39814;SDS011;25495;45.948;4.568;2022-12-17T02:59:34;22.10;;;8.77;;
39814;SDS011;25495;45.948;4.568;2022-12-17T03:02:18;14.55;;;7.38;;
39814;SDS011;25495;45.948;4.568;2022-12-17T03:05:10;20.23;;;9.02;;
39814;SDS011;25495;45.948;4.568;2022-12-17T03:07:54;18.73;;;7.68;;
39814;SDS011;25495;45.948;4.568;2022-12-17T03:10:38;15.70;;;7.78;;
39814;SDS011;25495;45.948;4.568;2022-12-17T03:13:26;16.50;;;7.47;;
39814;SDS011;25495;45.948;4.568;2022-12-17T03:16:12;20.33;;;7.63;;
39814;SDS011;25495;45.948;4.568;2022-12-17T03:18:59;17.63;;;7.30;;
39814;SDS011;25495;45.948;4.568;2022-12-17T03:21:43;16.70;;;7.80;;
39814;SDS011;25495;45.948;4.568;2022-12-17T03:24:27;17.80;;;7.80;;
39814;SDS011;25495;45.948;4.568;2022-12-17T03:27:12;19.58;;;8.13;;
39814;SDS011;25495;45.948;4.568;2022-12-17T03:29:57;14.60;;;7.38;;
39814;SDS011;25495;45.948;4.568;2022-12-17T03:32:41;15.65;;;7.45;;
39814;SDS011;25495;45.948;4.568;2022-12-17T03:35:25;15.80;;;7.47;;
39814;SDS011;25495;45.948;4.568;2022-12-17T03:38:10;19.20;;;8.25;;
39814;SDS011;25495;45.948;4.568;2022-12-17T03:40:55;20.00;;;8.35;;
39814;SDS011;25495;45.948;4.568;2022-12-17T03:43:39;19.38;;;8.82;;
39814;SDS011;25495;45.948;4.568;2022-12-17T03:46:24;22.42;;;8.95;;
39814;SDS011;25495;45.948;4.568;2022-12-17T03:49:08;20.25;;;8.10;;
39814;SDS011;25495;45.948;4.568;2022-12-17T03:51:52;18.90;;;7.82;;
39814;SDS011;25495;45.948;4.568;2022-12-17T03:54:36;17.27;;;8.25;;
39814;SDS011;25495;45.948;4.568;2022-12-17T03:57:20;15.40;;;7.40;;
39814;SDS011;25495;45.948;4.568;2022-12-17T04:00:05;16.67;;;7.22;;
39814;SDS011;25495;45.948;4.568;2022-12-17T04:02:50;14.50;;;7.47;;
39814;SDS011;25495;45.948;4.568;2022-12-17T04:05:34;17.83;;;7.57;;
39814;SDS011;25495;45.948;4.568;2022-12-17T04:08:18;15.55;;;7.30;;
39814;SDS011;25495;45.948;4.568;2022-12-17T04:11:02;15.07;;;6.65;;
39814;SDS011;25495;45.948;4.568;2022-12-17T04:13:47;12.95;;;6.78;;
39814;SDS011;25495;45.948;4.568;2022-12-17T04:16:31;16.63;;;7.35;;
39814;SDS011;25495;45.948;4.568;2022-12-17T04:19:15;18.60;;;8.07;;
39814;SDS011;25495;45.948;4.568;2022-12-17T04:21:59;17.65;;;7.13;;
39814;SDS011;25495;45.948;4.568;2022-12-17T04:24:43;18.58;;;8.02;;
39814;SDS011;25495;45.948;4.568;2022-12-17T04:27:27;16.77;;;7.82;;
39814;SDS011;25495;45.948;4.568;2022-12-17T04:30:11;17.85;;;7.55;;
39814;SDS011;25495;45.948;4.568;2022-12-17T04:32:55;20.27;;;7.63;;
39814;SDS011;25495;45.948;4.568;2022-12-17T04:35:39;21.02;;;8.57;;
39814;SDS011;25495;45.948;4.568;2022-12-17T04:38:23;18.55;;;8.07;;
39814;SDS011;25495;45.948;4.568;2022-12-17T04:41:07;16.02;;;7.20;;
39814;SDS011;25495;45.948;4.568;2022-12-17T04:43:52;20.27;;;7.95;;
39814;SDS011;25495;45.948;4.568;2022-12-17T04:46:36;16.42;;;7.20;;
39814;SDS011;25495;45.948;4.568;2022-12-17T04:49:20;17.90;;;7.28;;
39814;SDS011;25495;45.948;4.568;2022-12-17T04:52:04;16.73;;;7.85;;
39814;SDS011;25495;45.948;4.568;2022-12-17T04:54:48;18.58;;;7.93;;
39814;SDS011;25495;45.948;4.568;2022-12-17T04:57:32;17.00;;;7.28;;
39814;SDS011;25495;45.948;4.568;2022-12-17T05:00:16;16.38;;;7.53;;
39814;SDS011;25495;45.948;4.568;2022-12-17T05:03:04;16.33;;;7.13;;
39814;SDS011;25495;45.948;4.568;2022-12-17T05:05:50;20.10;;;7.82;;
39814;SDS011;25495;45.948;4.568;2022-12-17T05:08:34;18.88;;;8.25;;
39814;SDS011;25495;45.948;4.568;2022-12-17T05:11:35;18.13;;;7.68;;
39814;SDS011;25495;45.948;4.568;2022-12-17T05:14:19;21.88;;;7.57;;
39814;SDS011;25495;45.948;4.568;2022-12-17T05:17:03;14.75;;;8.13;;
39814;SDS011;25495;45.948;4.568;2022-12-17T05:19:48;16.50;;;7.63;;
39814;SDS011;25495;45.948;4.568;2022-12-17T05:22:32;16.13;;;6.95;;
39814;SDS011;25495;45.948;4.568;2022-12-17T05:25:16;16.73;;;8.02;;
39814;SDS011;25495;45.948;4.568;2022-12-17T05:28:00;17.23;;;7.78;;
39814;SDS011;25495;45.948;4.568;2022-12-17T05:30:54;17.85;;;7.80;;
39814;SDS011;25495;45.948;4.568;2022-12-17T05:33:39;16.98;;;7.15;;
39814;SDS011;25495;45.948;4.568;2022-12-17T05:36:23;23.60;;;8.70;;
39814;SDS011;25495;45.948;4.568;2022-12-17T05:39:08;19.05;;;7.88;;
39814;SDS011;25495;45.948;4.568;2022-12-17T05:41:52;23.00;;;8.88;;
39814;SDS011;25495;45.948;4.568;2022-12-17T05:44:36;19.85;;;8.20;;
39814;SDS011;25495;45.948;4.568;2022-12-17T05:47:20;21.65;;;8.15;;
39814;SDS011;25495;45.948;4.568;2022-12-17T05:50:07;19.60;;;8.13;;
39814;SDS011;25495;45.948;4.568;2022-12-17T05:52:52;15.90;;;7.65;;
39814;SDS011;25495;45.948;4.568;2022-12-17T05:55:36;18.00;;;8.05;;
39814;SDS011;25495;45.948;4.568;2022-12-17T05:58:20;16.13;;;7.53;;
39814;SDS011;25495;45.948;4.568;2022-12-17T06:01:04;18.13;;;7.47;;
39814;SDS011;25495;45.948;4.568;2022-12-17T06:03:49;21.98;;;9.48;;
39814;SDS011;25495;45.948;4.568;2022-12-17T06:06:33;20.95;;;8.63;;
39814;SDS011;25495;45.948;4.568;2022-12-17T06:09:19;18.67;;;8.45;;
39814;SDS011;25495;45.948;4.568;2022-12-17T06:12:03;20.45;;;8.77;;
39814;SDS011;25495;45.948;4.568;2022-12-17T06:14:47;19.75;;;8.77;;
39814;SDS011;25495;45.948;4.568;2022-12-17T06:17:31;24.85;;;10.43;;
39814;SDS011;25495;45.948;4.568;2022-12-17T06:20:16;27.98;;;10.65;;
39814;SDS011;25495;45.948;4.568;2022-12-17T06:23:06;18.13;;;9.10;;
39814;SDS011;25495;45.948;4.568;2022-12-17T06:25:53;19.80;;;9.20;;
39814;SDS011;25495;45.948;4.568;2022-12-17T06:28:39;19.23;;;9.00;;
39814;SDS011;25495;45.948;4.568;2022-12-17T06:31:24;22.55;;;8.82;;
39814;SDS011;25495;45.948;4.568;2022-12-17T06:34:08;21.52;;;9.32;;
39814;SDS011;25495;45.948;4.568;2022-12-17T06:36:53;18.80;;;8.10;;
39814;SDS011;25495;45.948;4.568;2022-12-17T06:39:37;21.88;;;8.82;;
39814;SDS011;25495;45.948;4.568;2022-12-17T06:42:21;24.83;;;10.18;;
39814;SDS011;25495;45.948;4.568;2022-12-17T06:45:05;19.90;;;8.52;;
39814;SDS011;25495;45.948;4.568;2022-12-17T06:47:50;26.25;;;9.15;;
39814;SDS011;25495;45.948;4.568;2022-12-17T06:50:34;19.90;;;9.40;;
39814;SDS011;25495;45.948;4.568;2022-12-17T06:53:19;22.85;;;9.32;;
39814;SDS011;25495;45.948;4.568;2022-12-17T06:56:03;19.27;;;8.77;;
39814;SDS011;25495;45.948;4.568;2022-12-17T06:58:47;18.75;;;7.75;;
39814;SDS011;25495;45.948;4.568;2022-12-17T07:01:31;18.80;;;8.80;;
39814;SDS011;25495;45.948;4.568;2022-12-17T07:04:15;18.90;;;7.80;;
39814;SDS011;25495;45.948;4.568;2022-12-17T07:06:59;17.40;;;7.90;;
39814;SDS011;25495;45.948;4.568;2022-12-17T07:09:44;17.58;;;6.95;;
39814;SDS011;25495;45.948;4.568;2022-12-17T07:12:28;22.48;;;8.43;;
39814;SDS011;25495;45.948;4.568;2022-12-17T07:15:12;22.85;;;8.13;;
39814;SDS011;25495;45.948;4.568;2022-12-17T07:17:57;19.25;;;9.23;;
39814;SDS011;25495;45.948;4.568;2022-12-17T07:20:42;19.65;;;8.73;;
39814;SDS011;25495;45.948;4.568;2022-12-17T07:23:26;23.13;;;8.75;;
39814;SDS011;25495;45.948;4.568;2022-12-17T07:26:11;19.10;;;8.45;;
39814;SDS011;25495;45.948;4.568;2022-12-17T07:28:55;20.42;;;8.63;;
39814;SDS011;25495;45.948;4.568;2022-12-17T07:31:39;20.48;;;7.55;;
39814;SDS011;25495;45.948;4.568;2022-12-17T07:34:23;17.80;;;8.50;;
39814;SDS011;25495;45.948;4.568;2022-12-17T07:37:08;19.15;;;8.02;;
39814;SDS011;25495;45.948;4.568;2022-12-17T07:39:52;18.83;;;8.80;;
39814;SDS011;25495;45.948;4.568;2022-12-17T07:42:37;23.83;;;8.63;;
39814;SDS011;25495;45.948;4.568;2022-12-17T07:45:22;16.98;;;7.82;;
39814;SDS011;25495;45.948;4.568;2022-12-17T07:48:06;21.60;;;8.40;;
39814;SDS011;25495;45.948;4.568;2022-12-17T07:50:51;26.00;;;10.02;;
39814;SDS011;25495;45.948;4.568;2022-12-17T07:53:36;25.50;;;11.75;;
39814;SDS011;25495;45.948;4.568;2022-12-17T07:56:20;17.88;;;9.23;;
39814;SDS011;25495;45.948;4.568;2022-12-17T07:59:05;22.30;;;9.20;;
39814;SDS011;25495;45.948;4.568;2022-12-17T08:01:49;21.08;;;9.73;;
39814;SDS011;25495;45.948;4.568;2022-12-17T08:04:33;21.45;;;8.88;;
39814;SDS011;25495;45.948;4.568;2022-12-17T08:07:18;22.95;;;10.60;;
39814;SDS011;25495;45.948;4.568;2022-12-17T08:10:02;20.20;;;8.52;;
39814;SDS011;25495;45.948;4.568;2022-12-17T08:12:54;19.60;;;7.85;;
39814;SDS011;25495;45.948;4.568;2022-12-17T08:15:39;25.40;;;9.60;;
39814;SDS011;25495;45.948;4.568;2022-12-17T08:18:24;17.42;;;8.27;;
39814;SDS011;25495;45.948;4.568;2022-12-17T08:21:08;19.80;;;9.70;;
39814;SDS011;25495;45.948;4.568;2022-12-17T08:23:52;18.20;;;8.43;;
39814;SDS011;25495;45.948;4.568;2022-12-17T08:26:36;18.42;;;8.98;;
39814;SDS011;25495;45.948;4.568;2022-12-17T08:29:20;16.05;;;8.15;;
39814;SDS011;25495;45.948;4.568;2022-12-17T08:32:04;37.90;;;15.73;;
39814;SDS011;25495;45.948;4.568;2022-12-17T08:34:48;281.92;;;122.75;;
39814;SDS011;25495;45.948;4.568;2022-12-17T08:37:32;108.30;;;51.15;;
39814;SDS011;25495;45.948;4.568;2022-12-17T08:40:16;54.15;;;23.67;;
39814;SDS011;25495;45.948;4.568;2022-12-17T08:43:00;55.42;;;24.60;;
39814;SDS011;25495;45.948;4.568;2022-12-17T08:45:45;34.70;;;17.40;;
39814;SDS011;25495;45.948;4.568;2022-12-17T08:48:33;42.25;;;19.73;;
39814;SDS011;25495;45.948;4.568;2022-12-17T08:51:17;35.92;;;16.83;;
39814;SDS011;25495;45.948;4.568;2022-12-17T08:54:01;33.03;;;15.23;;
39814;SDS011;25495;45.948;4.568;2022-12-17T08:56:45;42.33;;;19.90;;
39814;SDS011;25495;45.948;4.568;2022-12-17T08:59:29;37.13;;;17.27;;
39814;SDS011;25495;45.948;4.568;2022-12-17T09:02:13;34.58;;;16.08;;
39814;SDS011;25495;45.948;4.568;2022-12-17T09:04:57;30.63;;;13.50;;
39814;SDS011;25495;45.948;4.568;2022-12-17T09:07:42;26.60;;;12.65;;
39814;SDS011;25495;45.948;4.568;2022-12-17T09:10:26;25.95;;;11.95;;
39814;SDS011;25495;45.948;4.568;2022-12-17T09:13:10;20.90;;;9.88;;
39814;SDS011;25495;45.948;4.568;2022-12-17T09:15:54;25.60;;;10.10;;
39814;SDS011;25495;45.948;4.568;2022-12-17T09:18:39;23.80;;;11.95;;
39814;SDS011;25495;45.948;4.568;2022-12-17T09:21:25;20.33;;;10.43;;
39814;SDS011;25495;45.948;4.568;2022-12-17T09:24:10;20.50;;;9.95;;
39814;SDS011;25495;45.948;4.568;2022-12-17T09:26:55;21.95;;;10.40;;
39814;SDS011;25495;45.948;4.568;2022-12-17T09:29:38;19.58;;;9.63;;
39814;SDS011;25495;45.948;4.568;2022-12-17T09:32:23;19.40;;;9.30;;
39814;SDS011;25495;45.948;4.568;2022-12-17T09:35:07;17.70;;;8.48;;
39814;SDS011;25495;45.948;4.568;2022-12-17T09:37:54;19.05;;;9.18;;
39814;SDS011;25495;45.948;4.568;2022-12-17T09:40:39;25.63;;;12.02;;
39814;SDS011;25495;45.948;4.568;2022-12-17T09:46:35;15.30;;;8.05;;
39814;SDS011;25495;45.948;4.568;2022-12-17T09:49:25;58.72;;;21.52;;
39814;SDS011;25495;45.948;4.568;2022-12-17T09:52:25;36.30;;;14.65;;
39814;SDS011;25495;45.948;4.568;2022-12-17T09:55:16;26.38;;;11.45;;
39814;SDS011;25495;45.948;4.568;2022-12-17T10:01:04;22.30;;;10.85;;
39814;SDS011;25495;45.948;4.568;2022-12-17T10:04:11;18.42;;;9.50;;
39814;SDS011;25495;45.948;4.568;2022-12-17T10:07:00;19.90;;;10.10;;
39814;SDS011;25495;45.948;4.568;2022-12-17T10:09:48;19.65;;;10.10;;
39814;SDS011;25495;45.948;4.568;2022-12-17T10:12:34;24.10;;;9.98;;
39814;SDS011;25495;45.948;4.568;2022-12-17T10:15:19;16.83;;;8.60;;
39814;SDS011;25495;45.948;4.568;2022-12-17T10:18:04;25.35;;;10.65;;
39814;SDS011;25495;45.948;4.568;2022-12-17T10:20:57;73.55;;;25.88;;
39814;SDS011;25495;45.948;4.568;2022-12-17T10:23:44;20.45;;;10.30;;
39814;SDS011;25495;45.948;4.568;2022-12-17T10:26:29;16.73;;;8.60;;
39814;SDS011;25495;45.948;4.568;2022-12-17T10:29:19;18.80;;;9.25;;
39814;SDS011;25495;45.948;4.568;2022-12-17T10:32:17;18.75;;;8.45;;
39814;SDS011;25495;45.948;4.568;2022-12-17T10:37:51;21.38;;;11.07;;
39814;SDS011;25495;45.948;4.568;2022-12-17T10:40:35;20.40;;;9.90;;
39814;SDS011;25495;45.948;4.568;2022-12-17T10:43:30;25.15;;;12.68;;
39814;SDS011;25495;45.948;4.568;2022-12-17T10:46:23;28.40;;;15.20;;
39814;SDS011;25495;45.948;4.568;2022-12-17T10:49:21;24.42;;;10.60;;
39814;SDS011;25495;45.948;4.568;2022-12-17T10:52:29;30.40;;;12.82;;
39814;SDS011;25495;45.948;4.568;2022-12-17T10:55:19;20.60;;;10.38;;
39814;SDS011;25495;45.948;4.568;2022-12-17T10:58:08;21.98;;;11.27;;
39814;SDS011;25495;45.948;4.568;2022-12-17T11:00:58;24.20;;;10.52;;
39814;SDS011;25495;45.948;4.568;2022-12-17T11:03:50;18.88;;;8.90;;
39814;SDS011;25495;45.948;4.568;2022-12-17T11:06:55;18.00;;;9.30;;
39814;SDS011;25495;45.948;4.568;2022-12-17T11:09:42;15.70;;;8.88;;
39814;SDS011;25495;45.948;4.568;2022-12-17T11:12:40;19.60;;;9.38;;
39814;SDS011;25495;45.948;4.568;2022-12-17T11:15:31;21.20;;;10.18;;
39814;SDS011;25495;45.948;4.568;2022-12-17T11:18:19;17.73;;;10.02;;
39814;SDS011;25495;45.948;4.568;2022-12-17T11:21:10;19.25;;;9.77;;
39814;SDS011;25495;45.948;4.568;2022-12-17T11:24:02;16.52;;;9.13;;
39814;SDS011;25495;45.948;4.568;2022-12-17T11:26:47;19.00;;;10.18;;
39814;SDS011;25495;45.948;4.568;2022-12-17T11:29:36;16.58;;;8.95;;
39814;SDS011;25495;45.948;4.568;2022-12-17T11:32:24;18.05;;;9.85;;
39814;SDS011;25495;45.948;4.568;2022-12-17T11:35:24;19.08;;;9.98;;
39814;SDS011;25495;45.948;4.568;2022-12-17T11:41:36;19.20;;;10.25;;
39814;SDS011;25495;45.948;4.568;2022-12-17T11:50:45;17.92;;;9.98;;
39814;SDS011;25495;45.948;4.568;2022-12-17T11:53:50;23.05;;;11.73;;
39814;SDS011;25495;45.948;4.568;2022-12-17T11:56:42;19.10;;;10.82;;
39814;SDS011;25495;45.948;4.568;2022-12-17T11:59:39;19.08;;;10.70;;
39814;SDS011;25495;45.948;4.568;2022-12-17T12:05:52;17.73;;;10.15;;
39814;SDS011;25495;45.948;4.568;2022-12-17T12:11:50;21.70;;;10.77;;
39814;SDS011;25495;45.948;4.568;2022-12-17T12:17:51;23.40;;;12.48;;
39814;SDS011;25495;45.948;4.568;2022-12-17T12:27:04;22.45;;;12.68;;
39814;SDS011;25495;45.948;4.568;2022-12-17T12:30:12;23.15;;;12.57;;
39814;SDS011;25495;45.948;4.568;2022-12-17T12:33:07;22.52;;;12.20;;
39814;SDS011;25495;45.948;4.568;2022-12-17T12:35:58;26.10;;;13.60;;
39814;SDS011;25495;45.948;4.568;2022-12-17T12:38:50;25.55;;;13.50;;
39814;SDS011;25495;45.948;4.568;2022-12-17T12:41:41;23.25;;;13.25;;
39814;SDS011;25495;45.948;4.568;2022-12-17T12:44:48;22.75;;;12.60;;
39814;SDS011;25495;45.948;4.568;2022-12-17T12:47:42;29.40;;;14.95;;
39814;SDS011;25495;45.948;4.568;2022-12-17T12:50:33;23.10;;;13.68;;
39814;SDS011;25495;45.948;4.568;2022-12-17T12:53:22;26.33;;;13.55;;
39814;SDS011;25495;45.948;4.568;2022-12-17T12:56:23;28.45;;;14.40;;
39814;SDS011;25495;45.948;4.568;2022-12-17T12:59:09;27.35;;;14.00;;
39814;SDS011;25495;45.948;4.568;2022-12-17T13:02:22;26.52;;;14.85;;
39814;SDS011;25495;45.948;4.568;2022-12-17T13:08:03;40.78;;;25.52;;
39814;SDS011;25495;45.948;4.568;2022-12-17T13:10:46;30.27;;;18.13;;
39814;SDS011;25495;45.948;4.568;2022-12-17T13:15:40;35.40;;;20.73;;
39814;SDS011;25495;45.948;4.568;2022-12-17T13:18:15;29.63;;;16.80;;
39814;SDS011;25495;45.948;4.568;2022-12-17T13:23:41;30.23;;;16.58;;
39814;SDS011;25495;45.948;4.568;2022-12-17T13:29:01;33.47;;;17.40;;
39814;SDS011;25495;45.948;4.568;2022-12-17T13:31:41;27.33;;;16.05;;
39814;SDS011;25495;45.948;4.568;2022-12-17T13:37:13;28.60;;;15.45;;
39814;SDS011;25495;45.948;4.568;2022-12-17T13:42:33;35.08;;;18.40;;
39814;SDS011;25495;45.948;4.568;2022-12-17T13:45:01;32.72;;;16.13;;
39814;SDS011;25495;45.948;4.568;2022-12-17T13:47:28;33.63;;;17.08;;
39814;SDS011;25495;45.948;4.568;2022-12-17T13:49:57;34.25;;;17.75;;
39814;SDS011;25495;45.948;4.568;2022-12-17T13:52:25;36.38;;;18.38;;
39814;SDS011;25495;45.948;4.568;2022-12-17T13:54:53;36.75;;;18.83;;
39814;SDS011;25495;45.948;4.568;2022-12-17T13:57:29;39.25;;;19.35;;
39814;SDS011;25495;45.948;4.568;2022-12-17T13:59:56;36.00;;;18.48;;
39814;SDS011;25495;45.948;4.568;2022-12-17T14:02:28;35.30;;;18.92;;
39814;SDS011;25495;45.948;4.568;2022-12-17T14:04:57;33.00;;;17.35;;
39814;SDS011;25495;45.948;4.568;2022-12-17T14:07:25;42.63;;;18.70;;
39814;SDS011;25495;45.948;4.568;2022-12-17T14:09:52;37.42;;;17.85;;
39814;SDS011;25495;45.948;4.568;2022-12-17T14:12:19;36.33;;;17.85;;
39814;SDS011;25495;45.948;4.568;2022-12-17T14:14:58;37.17;;;18.13;;
39814;SDS011;25495;45.948;4.568;2022-12-17T14:17:44;38.50;;;20.30;;
39814;SDS011;25495;45.948;4.568;2022-12-17T14:20:14;44.05;;;20.55;;
39814;SDS011;25495;45.948;4.568;2022-12-17T14:22:43;39.80;;;19.50;;
39814;SDS011;25495;45.948;4.568;2022-12-17T14:27:48;38.35;;;19.35;;
39814;SDS011;25495;45.948;4.568;2022-12-17T14:30:37;41.67;;;20.50;;
39814;SDS011;25495;45.948;4.568;2022-12-17T14:33:18;40.35;;;19.92;;
39814;SDS011;25495;45.948;4.568;2022-12-17T14:35:51;42.33;;;20.98;;
39814;SDS011;25495;45.948;4.568;2022-12-17T14:38:19;45.00;;;21.48;;
39814;SDS011;25495;45.948;4.568;2022-12-17T14:40:45;46.35;;;22.80;;
39814;SDS011;25495;45.948;4.568;2022-12-17T14:43:12;38.72;;;20.98;;
39814;SDS011;25495;45.948;4.568;2022-12-17T14:45:47;44.72;;;21.77;;
39814;SDS011;25495;45.948;4.568;2022-12-17T14:48:35;44.00;;;21.58;;
39814;SDS011;25495;45.948;4.568;2022-12-17T14:51:21;46.22;;;22.80;;
39814;SDS011;25495;45.948;4.568;2022-12-17T14:53:48;41.60;;;20.92;;
39814;SDS011;25495;45.948;4.568;2022-12-17T14:56:20;45.58;;;22.77;;
39814;SDS011;25495;45.948;4.568;2022-12-17T14:58:47;41.60;;;22.27;;
39814;SDS011;25495;45.948;4.568;2022-12-17T15:01:13;47.25;;;22.17;;
39814;SDS011;25495;45.948;4.568;2022-12-17T15:03:41;48.97;;;23.08;;
39814;SDS011;25495;45.948;4.568;2022-12-17T15:06:10;47.13;;;22.83;;
39814;SDS011;25495;45.948;4.568;2022-12-17T15:08:42;48.45;;;23.70;;
39814;SDS011;25495;45.948;4.568;2022-12-17T15:11:11;48.03;;;23.13;;
39814;SDS011;25495;45.948;4.568;2022-12-17T15:13:39;49.50;;;22.63;;
39814;SDS011;25495;45.948;4.568;2022-12-17T15:16:05;46.47;;;22.50;;
39814;SDS011;25495;45.948;4.568;2022-12-17T15:18:31;48.38;;;22.92;;
39814;SDS011;25495;45.948;4.568;2022-12-17T15:20:57;46.78;;;22.92;;
39814;SDS011;25495;45.948;4.568;2022-12-17T15:23:23;56.38;;;25.38;;
39814;SDS011;25495;45.948;4.568;2022-12-17T15:25:50;47.33;;;23.95;;
39814;SDS011;25495;45.948;4.568;2022-12-17T15:28:18;46.55;;;23.42;;
39814;SDS011;25495;45.948;4.568;2022-12-17T15:30:44;47.38;;;24.83;;
39814;SDS011;25495;45.948;4.568;2022-12-17T15:33:12;47.72;;;19.73;;
39814;SDS011;25495;45.948;4.568;2022-12-17T15:35:38;54.78;;;25.25;;
39814;SDS011;25495;45.948;4.568;2022-12-17T15:38:05;56.95;;;27.40;;
39814;SDS011;25495;45.948;4.568;2022-12-17T15:40:31;54.70;;;25.65;;
39814;SDS011;25495;45.948;4.568;2022-12-17T15:42:57;58.92;;;27.40;;
39814;SDS011;25495;45.948;4.568;2022-12-17T15:45:42;52.03;;;23.55;;
39814;SDS011;25495;45.948;4.568;2022-12-17T15:48:10;55.97;;;26.42;;
39814;SDS011;25495;45.948;4.568;2022-12-17T15:50:37;55.40;;;27.35;;
39814;SDS011;25495;45.948;4.568;2022-12-17T15:53:03;56.67;;;27.65;;
39814;SDS011;25495;45.948;4.568;2022-12-17T15:55:30;52.20;;;26.00;;
39814;SDS011;25495;45.948;4.568;2022-12-17T15:57:56;50.83;;;24.75;;
39814;SDS011;25495;45.948;4.568;2022-12-17T16:00:23;59.05;;;27.58;;
39814;SDS011;25495;45.948;4.568;2022-12-17T16:02:49;60.35;;;26.27;;
39814;SDS011;25495;45.948;4.568;2022-12-17T16:05:15;52.28;;;24.73;;
39814;SDS011;25495;45.948;4.568;2022-12-17T16:07:41;58.97;;;26.65;;
39814;SDS011;25495;45.948;4.568;2022-12-17T16:10:10;53.78;;;26.20;;
39814;SDS011;25495;45.948;4.568;2022-12-17T16:12:37;61.72;;;30.45;;
39814;SDS011;25495;45.948;4.568;2022-12-17T16:15:03;53.97;;;26.75;;
39814;SDS011;25495;45.948;4.568;2022-12-17T16:17:30;58.20;;;28.35;;
39814;SDS011;25495;45.948;4.568;2022-12-17T16:19:56;56.03;;;27.15;;
39814;SDS011;25495;45.948;4.568;2022-12-17T16:22:22;59.10;;;26.95;;
39814;SDS011;25495;45.948;4.568;2022-12-17T16:24:48;57.00;;;26.80;;
39814;SDS011;25495;45.948;4.568;2022-12-17T16:27:14;56.60;;;26.35;;
39814;SDS011;25495;45.948;4.568;2022-12-17T16:29:42;57.15;;;27.20;;
39814;SDS011;25495;45.948;4.568;2022-12-17T16:32:08;59.08;;;27.77;;
39814;SDS011;25495;45.948;4.568;2022-12-17T16:34:34;60.92;;;27.25;;
39814;SDS011;25495;45.948;4.568;2022-12-17T16:36:59;54.10;;;26.73;;
39814;SDS011;25495;45.948;4.568;2022-12-17T16:39:25;53.95;;;26.73;;
39814;SDS011;25495;45.948;4.568;2022-12-17T16:41:51;53.28;;;25.13;;
39814;SDS011;25495;45.948;4.568;2022-12-17T16:44:17;56.30;;;26.63;;
39814;SDS011;25495;45.948;4.568;2022-12-17T16:46:43;56.60;;;27.33;;
39814;SDS011;25495;45.948;4.568;2022-12-17T16:51:54;57.78;;;26.85;;
39814;SDS011;25495;45.948;4.568;2022-12-17T16:54:21;56.70;;;25.30;;
39814;SDS011;25495;45.948;4.568;2022-12-17T16:56:50;58.90;;;28.38;;
39814;SDS011;25495;45.948;4.568;2022-12-17T16:59:18;63.28;;;27.88;;
39814;SDS011;25495;45.948;4.568;2022-12-17T17:01:47;58.63;;;26.40;;